createdAt,value
2022-11-17T00:00:50.727Z,2.30
2022-11-17T00:05:52.365Z,7.45
2022-11-17T00:10:54.058Z,3.78
2022-11-17T00:15:55.742Z,4.82
2022-11-17T00:21:16.208Z,4.13
2022-11-17T00:26:19.083Z,5.40
2022-11-17T00:31:40.400Z,3.35
2022-11-17T00:36:45.748Z,4.38
2022-11-17T00:41:47.897Z,2.65
2022-11-17T00:46:49.940Z,4.30
2022-11-17T00:51:52.713Z,7.13
2022-11-17T00:56:54.726Z,5.65
2022-11-17T01:01:56.393Z,6.65
2022-11-17T01:06:58.056Z,5.45
2022-11-17T01:11:59.881Z,2.30
2022-11-17T01:17:01.567Z,3.70
2022-11-17T01:22:03.872Z,3.00
2022-11-17T01:27:05.535Z,4.70
2022-11-17T01:32:07.243Z,6.63
2022-11-17T01:37:21.175Z,3.90
2022-11-17T01:42:25.780Z,5.07
2022-11-17T01:47:42.503Z,5.25
2022-11-17T01:52:44.939Z,3.08
2022-11-17T01:58:10.460Z,5.47
2022-11-17T02:03:13.493Z,4.65
2022-11-17T02:08:16.997Z,3.40
2022-11-17T02:13:20.325Z,4.00
2022-11-17T02:18:22.132Z,3.20
2022-11-17T02:23:35.707Z,4.85
2022-11-17T02:28:50.307Z,4.87
2022-11-17T02:39:18.549Z,2.30
2022-11-17T02:44:33.246Z,5.25
2022-11-17T02:49:38.004Z,5.13
2022-11-17T02:54:39.743Z,2.42
2022-11-17T02:59:47.655Z,3.72
2022-11-17T03:05:07.987Z,5.95
2022-11-17T03:10:20.877Z,2.88
2022-11-17T03:15:44.731Z,2.05
2022-11-17T03:21:08.382Z,4.03
2022-11-17T03:26:15.307Z,4.03
2022-11-17T03:31:19.106Z,2.35
2022-11-17T03:36:25.737Z,1.88
2022-11-17T03:41:31.516Z,3.03
2022-11-17T03:46:36.256Z,2.55
2022-11-17T03:51:38.294Z,5.78
2022-11-17T03:56:43.218Z,2.95
2022-11-17T04:01:45.216Z,2.50
2022-11-17T04:06:48.208Z,5.10
2022-11-17T04:12:08.360Z,4.60
2022-11-17T04:17:10.027Z,3.80
2022-11-17T04:22:14.829Z,5.18
2022-11-17T04:27:34.986Z,5.03
2022-11-17T04:32:36.708Z,3.95
2022-11-17T04:37:38.352Z,2.55
2022-11-17T04:42:40.061Z,5.25
2022-11-17T04:47:41.723Z,3.75
2022-11-17T04:52:43.486Z,2.67
2022-11-17T04:57:45.182Z,2.47
2022-11-17T05:02:46.871Z,3.97
2022-11-17T05:07:48.503Z,5.07
2022-11-17T05:13:08.699Z,2.97
2022-11-17T05:18:10.438Z,3.65
2022-11-17T05:23:30.515Z,3.58
2022-11-17T05:28:32.147Z,2.92
2022-11-17T05:33:37.757Z,2.63
2022-11-17T05:38:40.268Z,5.45
2022-11-17T05:43:42.239Z,5.10
2022-11-17T05:48:44.760Z,4.20
2022-11-17T05:53:46.792Z,2.63
2022-11-17T05:59:11.517Z,5.30
2022-11-17T06:04:17.275Z,4.18
2022-11-17T06:09:19.352Z,2.97
2022-11-17T06:14:21.059Z,3.83
2022-11-17T06:19:27.796Z,3.25
2022-11-17T06:24:29.546Z,3.10
2022-11-17T06:29:31.865Z,5.72
2022-11-17T06:34:34.898Z,5.47
2022-11-17T06:39:36.558Z,7.43
2022-11-17T06:44:38.233Z,6.05
2022-11-17T06:49:39.938Z,9.43
2022-11-17T06:54:41.590Z,4.70
2022-11-17T06:59:43.286Z,3.20
2022-11-17T07:04:44.966Z,5.93
2022-11-17T07:09:46.750Z,6.85
2022-11-17T07:14:48.516Z,7.05
2022-11-17T07:19:50.181Z,5.18
2022-11-17T07:24:51.910Z,5.90
2022-11-17T07:29:53.642Z,9.35
2022-11-17T07:34:55.400Z,8.27
2022-11-17T07:39:57.069Z,5.30
2022-11-17T07:44:58.733Z,6.22
2022-11-17T07:50:00.966Z,5.25
2022-11-17T07:55:02.714Z,7.45
2022-11-17T08:00:04.886Z,6.03
2022-11-17T08:05:07.074Z,6.95
2022-11-17T08:10:09.061Z,8.48
2022-11-17T08:15:10.813Z,6.50
2022-11-17T08:20:12.754Z,8.32
2022-11-17T08:25:14.869Z,6.50
2022-11-17T08:30:16.653Z,4.57
2022-11-17T08:35:21.223Z,4.80
2022-11-17T08:40:23.045Z,5.28
2022-11-17T08:45:25.198Z,9.55
2022-11-17T08:50:27.104Z,7.88
2022-11-17T08:55:28.895Z,6.43
2022-11-17T09:00:30.596Z,10.13
2022-11-17T09:05:35.243Z,4.97
2022-11-17T09:10:37.885Z,4.20
2022-11-17T09:15:39.611Z,5.30
2022-11-17T09:20:45.430Z,3.35
2022-11-17T09:25:47.441Z,3.33
2022-11-17T09:30:49.124Z,5.80
2022-11-17T09:35:50.833Z,2.45
2022-11-17T09:40:55.124Z,5.35
2022-11-17T09:51:12.768Z,5.15
2022-11-17T09:56:14.831Z,5.38
2022-11-17T10:01:19.206Z,4.55
2022-11-17T10:11:32.089Z,4.10
2022-11-17T10:16:34.013Z,3.78
2022-11-17T10:21:37.754Z,2.15
2022-11-17T10:26:49.578Z,2.90
2022-11-17T10:31:51.259Z,3.55
2022-11-17T10:36:53.062Z,3.35
2022-11-17T10:41:54.835Z,1.90
2022-11-17T10:47:05.470Z,3.08
2022-11-17T10:52:18.238Z,4.75
2022-11-17T10:57:26.645Z,1.85
2022-11-17T11:02:39.781Z,3.22
2022-11-17T11:07:41.965Z,3.22
2022-11-17T11:13:06.693Z,4.03
2022-11-17T11:23:20.894Z,1.73
2022-11-17T11:28:51.296Z,4.07
2022-11-17T11:34:17.455Z,2.72
2022-11-17T11:39:45.785Z,2.72
2022-11-17T11:45:09.148Z,2.10
2022-11-17T11:50:16.010Z,2.08
2022-11-17T11:55:34.765Z,2.40
2022-11-17T12:00:37.377Z,3.08
2022-11-17T12:06:25.530Z,2.58
2022-11-17T12:11:45.965Z,4.53
2022-11-17T12:16:48.445Z,2.58
2022-11-17T12:21:55.361Z,2.10
2022-11-17T12:27:35.459Z,2.00
2022-11-17T12:32:52.119Z,17.63
2022-11-17T12:38:12.832Z,12.77
2022-11-17T12:43:26.526Z,6.43
2022-11-17T12:48:34.687Z,5.10
2022-11-17T12:53:59.789Z,8.38
2022-11-17T12:59:10.557Z,5.10
2022-11-17T13:04:20.621Z,4.93
2022-11-17T13:09:26.869Z,1.75
2022-11-17T13:14:28.590Z,2.10
2022-11-17T13:19:32.794Z,4.57
2022-11-17T13:29:37.870Z,3.25
2022-11-17T13:34:48.192Z,3.10
2022-11-17T13:40:19.775Z,2.20
2022-11-17T13:45:21.657Z,4.28
2022-11-17T13:50:29.422Z,4.05
2022-11-17T13:55:32.041Z,3.85
2022-11-17T14:00:34.376Z,2.78
2022-11-17T14:05:36.091Z,6.10
2022-11-17T14:10:39.130Z,4.40
2022-11-17T14:15:42.643Z,3.63
2022-11-17T14:20:44.434Z,4.93
2022-11-17T14:25:50.047Z,6.63
2022-11-17T14:30:54.978Z,3.95
2022-11-17T14:35:59.186Z,5.95
2022-11-17T14:41:01.073Z,2.97
2022-11-17T14:46:03.382Z,4.40
2022-11-17T14:51:05.291Z,5.93
2022-11-17T14:56:10.818Z,4.43
2022-11-17T15:01:18.141Z,2.88
2022-11-17T15:06:20.571Z,6.65
2022-11-17T15:11:22.974Z,3.47
2022-11-17T15:16:24.742Z,6.53
2022-11-17T15:21:26.398Z,5.80
2022-11-17T15:26:28.028Z,5.07
2022-11-17T15:31:30.158Z,7.07
2022-11-17T15:36:31.995Z,6.93
2022-11-17T15:41:33.727Z,5.18
2022-11-17T15:46:36.161Z,4.72
2022-11-17T15:51:37.922Z,4.22
2022-11-17T15:56:39.649Z,5.93
2022-11-17T16:01:41.509Z,10.55
2022-11-17T16:06:45.678Z,5.82
2022-11-17T16:11:47.707Z,5.53
2022-11-17T16:16:49.654Z,5.30
2022-11-17T16:21:51.430Z,3.58
2022-11-17T16:26:53.114Z,5.72
2022-11-17T16:31:56.146Z,4.32
2022-11-17T16:36:57.910Z,5.82
2022-11-17T16:42:00.220Z,4.57
2022-11-17T16:47:02.011Z,4.20
2022-11-17T16:52:03.691Z,5.38
2022-11-17T16:57:05.345Z,5.25
2022-11-17T17:02:06.990Z,7.90
2022-11-17T17:07:08.737Z,4.90
2022-11-17T17:12:10.514Z,5.72
2022-11-17T17:17:12.169Z,7.47
2022-11-17T17:22:13.864Z,5.10
2022-11-17T17:27:15.618Z,6.53
2022-11-17T17:32:17.253Z,4.82
2022-11-17T17:37:18.903Z,4.82
2022-11-17T17:42:21.579Z,6.53
2022-11-17T17:47:23.248Z,5.95
2022-11-17T17:52:24.904Z,9.23
2022-11-17T17:57:29.863Z,8.45
2022-11-17T18:02:34.523Z,8.73
2022-11-17T18:07:36.503Z,11.25
2022-11-17T18:12:38.188Z,11.18
2022-11-17T18:17:39.892Z,11.90
2022-11-17T18:22:41.669Z,8.70
2022-11-17T18:27:43.305Z,9.93
2022-11-17T18:32:45.044Z,6.88
2022-11-17T18:37:46.656Z,8.18
2022-11-17T18:42:48.321Z,10.07
2022-11-17T18:47:49.971Z,5.35
2022-11-17T18:52:52.058Z,9.75
2022-11-17T18:57:53.833Z,8.32
2022-11-17T19:02:55.465Z,11.95
2022-11-17T19:07:57.627Z,11.88
2022-11-17T19:12:59.291Z,9.48
2022-11-17T19:18:00.857Z,6.88
2022-11-17T19:23:02.477Z,8.93
2022-11-17T19:28:04.563Z,9.98
2022-11-17T19:33:06.181Z,12.70
2022-11-17T19:38:07.815Z,10.50
2022-11-17T19:43:09.432Z,11.77
2022-11-17T19:48:11.162Z,7.30
2022-11-17T19:53:12.801Z,8.38
2022-11-17T19:58:18.444Z,13.07
2022-11-17T20:03:21.178Z,8.88
2022-11-17T20:08:22.817Z,10.60
2022-11-17T20:13:24.461Z,10.38
2022-11-17T20:18:26.506Z,13.35
2022-11-17T20:23:28.211Z,14.40
2022-11-17T20:28:32.929Z,9.73
2022-11-17T20:33:34.673Z,11.35
2022-11-17T20:38:36.393Z,13.32
2022-11-17T20:43:38.125Z,9.18
2022-11-17T20:48:40.785Z,11.07
2022-11-17T20:53:42.597Z,11.75
2022-11-17T20:58:44.751Z,13.18
2022-11-17T21:03:46.820Z,9.55
2022-11-17T21:08:48.792Z,9.10
2022-11-17T21:13:50.447Z,8.48
2022-11-17T21:18:52.462Z,8.80
2022-11-17T21:23:55.033Z,8.85
2022-11-17T21:29:00.481Z,8.50
2022-11-17T21:34:06.644Z,11.73
2022-11-17T21:39:08.326Z,9.27
2022-11-17T21:44:12.164Z,8.55
2022-11-17T21:49:14.284Z,7.72
2022-11-17T21:54:16.381Z,9.07
2022-11-17T21:59:18.352Z,8.60
2022-11-17T22:04:20.229Z,8.55
2022-11-17T22:09:21.975Z,7.45
2022-11-17T22:14:23.708Z,5.43
2022-11-17T22:19:28.247Z,6.82
2022-11-17T22:24:29.943Z,5.03
2022-11-17T22:29:31.540Z,8.40
2022-11-17T22:34:33.402Z,8.98
2022-11-17T22:39:35.088Z,9.88
2022-11-17T22:44:36.754Z,8.65
2022-11-17T22:49:38.406Z,7.22
2022-11-17T22:54:40.202Z,7.80
2022-11-17T22:59:41.859Z,10.45
2022-11-17T23:04:43.567Z,8.77
2022-11-17T23:09:45.193Z,11.18
2022-11-17T23:14:47.909Z,11.18
2022-11-17T23:19:49.592Z,11.55
2022-11-17T23:24:51.311Z,7.93
2022-11-17T23:29:53.530Z,7.25
2022-11-17T23:34:55.237Z,9.35
2022-11-17T23:39:56.893Z,11.30
2022-11-17T23:44:58.713Z,9.75
2022-11-17T23:50:00.428Z,8.93
2022-11-17T23:55:02.133Z,11.23
